sensor_id;sensor_type;location;lat;lon;timestamp;P1;durP1;ratioP1;P2;durP2;ratioP2
10659;SDS011;5378;53.206;13.316;2022-12-13T00:00:33;8.30;;;2.77;;
10659;SDS011;5378;53.206;13.316;2022-12-13T00:03:21;5.73;;;2.83;;
10659;SDS011;5378;53.206;13.316;2022-12-13T00:06:09;5.17;;;2.90;;
10659;SDS011;5378;53.206;13.316;2022-12-13T00:08:57;7.47;;;3.00;;
10659;SDS011;5378;53.206;13.316;2022-12-13T00:11:45;3.77;;;2.50;;
10659;SDS011;5378;53.206;13.316;2022-12-13T00:14:33;5.10;;;2.70;;
10659;SDS011;5378;53.206;13.316;2022-12-13T00:17:21;3.50;;;2.50;;
10659;SDS011;5378;53.206;13.316;2022-12-13T00:20:10;7.03;;;3.10;;
10659;SDS011;5378;53.206;13.316;2022-12-13T00:22:58;3.57;;;2.00;;
10659;SDS011;5378;53.206;13.316;2022-12-13T00:25:45;5.03;;;2.33;;
10659;SDS011;5378;53.206;13.316;2022-12-13T00:28:32;4.10;;;2.77;;
10659;SDS011;5378;53.206;13.316;2022-12-13T00:31:20;7.10;;;3.10;;
10659;SDS011;5378;53.206;13.316;2022-12-13T00:34:29;6.55;;;2.95;;
10659;SDS011;5378;53.206;13.316;2022-12-13T00:37:17;8.63;;;4.27;;
10659;SDS011;5378;53.206;13.316;2022-12-13T00:40:04;4.70;;;2.70;;
10659;SDS011;5378;53.206;13.316;2022-12-13T00:42:53;5.07;;;2.77;;
10659;SDS011;5378;53.206;13.316;2022-12-13T00:45:40;4.13;;;2.53;;
10659;SDS011;5378;53.206;13.316;2022-12-13T00:48:27;5.00;;;2.47;;
10659;SDS011;5378;53.206;13.316;2022-12-13T00:51:14;4.10;;;2.37;;
10659;SDS011;5378;53.206;13.316;2022-12-13T00:54:03;3.53;;;1.60;;
10659;SDS011;5378;53.206;13.316;2022-12-13T00:56:50;4.83;;;1.97;;
10659;SDS011;5378;53.206;13.316;2022-12-13T00:59:38;3.90;;;2.00;;
10659;SDS011;5378;53.206;13.316;2022-12-13T01:02:24;7.13;;;2.43;;
10659;SDS011;5378;53.206;13.316;2022-12-13T01:05:12;2.87;;;2.47;;
10659;SDS011;5378;53.206;13.316;2022-12-13T01:08:04;6.33;;;2.20;;
10659;SDS011;5378;53.206;13.316;2022-12-13T01:10:52;2.43;;;1.80;;
10659;SDS011;5378;53.206;13.316;2022-12-13T01:13:40;2.23;;;1.70;;
10659;SDS011;5378;53.206;13.316;2022-12-13T01:16:27;2.67;;;1.97;;
10659;SDS011;5378;53.206;13.316;2022-12-13T01:19:14;3.17;;;1.80;;
10659;SDS011;5378;53.206;13.316;2022-12-13T01:22:02;5.57;;;2.00;;
10659;SDS011;5378;53.206;13.316;2022-12-13T01:24:51;4.53;;;2.50;;
10659;SDS011;5378;53.206;13.316;2022-12-13T01:27:39;4.60;;;1.70;;
10659;SDS011;5378;53.206;13.316;2022-12-13T01:30:26;4.03;;;2.17;;
10659;SDS011;5378;53.206;13.316;2022-12-13T01:33:13;4.80;;;1.90;;
10659;SDS011;5378;53.206;13.316;2022-12-13T01:36:01;2.10;;;1.30;;
10659;SDS011;5378;53.206;13.316;2022-12-13T01:38:49;3.33;;;1.90;;
10659;SDS011;5378;53.206;13.316;2022-12-13T01:41:36;3.53;;;1.37;;
10659;SDS011;5378;53.206;13.316;2022-12-13T01:47:52;5.17;;;2.70;;
10659;SDS011;5378;53.206;13.316;2022-12-13T01:50:45;1.90;;;1.40;;
10659;SDS011;5378;53.206;13.316;2022-12-13T01:53:36;2.70;;;1.43;;
10659;SDS011;5378;53.206;13.316;2022-12-13T01:56:27;1.50;;;1.13;;
10659;SDS011;5378;53.206;13.316;2022-12-13T01:59:19;3.00;;;1.33;;
10659;SDS011;5378;53.206;13.316;2022-12-13T02:02:09;2.80;;;1.47;;
10659;SDS011;5378;53.206;13.316;2022-12-13T02:05:02;2.63;;;1.40;;
10659;SDS011;5378;53.206;13.316;2022-12-13T02:07:53;5.73;;;1.70;;
10659;SDS011;5378;53.206;13.316;2022-12-13T02:10:42;2.70;;;1.40;;
10659;SDS011;5378;53.206;13.316;2022-12-13T02:13:30;3.53;;;1.70;;
10659;SDS011;5378;53.206;13.316;2022-12-13T02:16:25;2.37;;;1.43;;
10659;SDS011;5378;53.206;13.316;2022-12-13T02:22:47;6.90;;;3.13;;
10659;SDS011;5378;53.206;13.316;2022-12-13T02:25:55;8.60;;;3.23;;
10659;SDS011;5378;53.206;13.316;2022-12-13T02:29:03;8.10;;;4.17;;
10659;SDS011;5378;53.206;13.316;2022-12-13T02:32:05;14.17;;;4.10;;
10659;SDS011;5378;53.206;13.316;2022-12-13T02:35:01;10.27;;;3.30;;
10659;SDS011;5378;53.206;13.316;2022-12-13T02:37:54;7.50;;;3.00;;
10659;SDS011;5378;53.206;13.316;2022-12-13T02:40:50;7.20;;;3.67;;
10659;SDS011;5378;53.206;13.316;2022-12-13T02:43:44;10.48;;;4.60;;
10659;SDS011;5378;53.206;13.316;2022-12-13T02:46:35;11.27;;;3.70;;
10659;SDS011;5378;53.206;13.316;2022-12-13T02:49:27;10.50;;;3.90;;
10659;SDS011;5378;53.206;13.316;2022-12-13T02:52:16;8.93;;;4.80;;
10659;SDS011;5378;53.206;13.316;2022-12-13T02:55:10;12.17;;;4.27;;
10659;SDS011;5378;53.206;13.316;2022-12-13T02:57:59;11.03;;;5.27;;
10659;SDS011;5378;53.206;13.316;2022-12-13T03:00:50;15.10;;;5.63;;
10659;SDS011;5378;53.206;13.316;2022-12-13T03:03:45;13.30;;;5.53;;
10659;SDS011;5378;53.206;13.316;2022-12-13T03:06:42;15.80;;;5.40;;
10659;SDS011;5378;53.206;13.316;2022-12-13T03:09:37;10.73;;;5.00;;
10659;SDS011;5378;53.206;13.316;2022-12-13T03:12:33;13.67;;;6.67;;
10659;SDS011;5378;53.206;13.316;2022-12-13T03:15:42;12.97;;;5.93;;
10659;SDS011;5378;53.206;13.316;2022-12-13T03:18:34;13.32;;;5.00;;
10659;SDS011;5378;53.206;13.316;2022-12-13T03:21:24;11.77;;;5.10;;
10659;SDS011;5378;53.206;13.316;2022-12-13T03:24:13;15.55;;;6.13;;
10659;SDS011;5378;53.206;13.316;2022-12-13T03:27:02;20.37;;;5.97;;
10659;SDS011;5378;53.206;13.316;2022-12-13T03:29:50;14.63;;;6.80;;
10659;SDS011;5378;53.206;13.316;2022-12-13T03:32:37;15.17;;;6.33;;
10659;SDS011;5378;53.206;13.316;2022-12-13T03:35:24;15.83;;;5.47;;
10659;SDS011;5378;53.206;13.316;2022-12-13T03:38:11;13.70;;;6.90;;
10659;SDS011;5378;53.206;13.316;2022-12-13T03:41:02;22.13;;;6.25;;
10659;SDS011;5378;53.206;13.316;2022-12-13T03:43:51;12.10;;;6.73;;
10659;SDS011;5378;53.206;13.316;2022-12-13T03:46:38;14.50;;;7.23;;
10659;SDS011;5378;53.206;13.316;2022-12-13T03:49:26;17.45;;;5.93;;
10659;SDS011;5378;53.206;13.316;2022-12-13T03:52:13;24.07;;;7.10;;
10659;SDS011;5378;53.206;13.316;2022-12-13T03:55:00;14.67;;;5.97;;
10659;SDS011;5378;53.206;13.316;2022-12-13T03:57:49;17.43;;;7.07;;
10659;SDS011;5378;53.206;13.316;2022-12-13T04:00:36;15.20;;;7.20;;
10659;SDS011;5378;53.206;13.316;2022-12-13T04:03:23;15.68;;;5.65;;
10659;SDS011;5378;53.206;13.316;2022-12-13T04:06:11;18.50;;;7.07;;
10659;SDS011;5378;53.206;13.316;2022-12-13T04:08:58;16.00;;;6.67;;
10659;SDS011;5378;53.206;13.316;2022-12-13T04:11:45;16.57;;;6.50;;
10659;SDS011;5378;53.206;13.316;2022-12-13T04:14:52;17.65;;;6.25;;
10659;SDS011;5378;53.206;13.316;2022-12-13T04:17:39;20.57;;;7.30;;
10659;SDS011;5378;53.206;13.316;2022-12-13T04:20:26;15.73;;;7.50;;
10659;SDS011;5378;53.206;13.316;2022-12-13T04:23:14;18.93;;;7.17;;
10659;SDS011;5378;53.206;13.316;2022-12-13T04:26:01;11.23;;;5.97;;
10659;SDS011;5378;53.206;13.316;2022-12-13T04:28:48;15.98;;;6.45;;
10659;SDS011;5378;53.206;13.316;2022-12-13T04:31:40;28.63;;;8.90;;
10659;SDS011;5378;53.206;13.316;2022-12-13T04:34:27;14.77;;;5.95;;
10659;SDS011;5378;53.206;13.316;2022-12-13T04:37:17;17.20;;;6.97;;
10659;SDS011;5378;53.206;13.316;2022-12-13T04:40:05;23.23;;;7.30;;
10659;SDS011;5378;53.206;13.316;2022-12-13T04:42:53;16.63;;;6.13;;
10659;SDS011;5378;53.206;13.316;2022-12-13T04:45:39;18.33;;;7.17;;
10659;SDS011;5378;53.206;13.316;2022-12-13T04:48:28;20.50;;;7.67;;
10659;SDS011;5378;53.206;13.316;2022-12-13T04:51:17;14.00;;;5.50;;
10659;SDS011;5378;53.206;13.316;2022-12-13T04:54:04;17.23;;;6.60;;
10659;SDS011;5378;53.206;13.316;2022-12-13T04:56:52;14.37;;;6.40;;
10659;SDS011;5378;53.206;13.316;2022-12-13T04:59:39;18.70;;;7.27;;
10659;SDS011;5378;53.206;13.316;2022-12-13T05:02:27;22.80;;;8.87;;
10659;SDS011;5378;53.206;13.316;2022-12-13T05:05:15;23.97;;;9.40;;
10659;SDS011;5378;53.206;13.316;2022-12-13T05:08:03;18.43;;;7.20;;
10659;SDS011;5378;53.206;13.316;2022-12-13T05:10:53;19.43;;;7.93;;
10659;SDS011;5378;53.206;13.316;2022-12-13T05:13:41;19.43;;;8.03;;
10659;SDS011;5378;53.206;13.316;2022-12-13T05:16:28;23.47;;;7.77;;
10659;SDS011;5378;53.206;13.316;2022-12-13T05:19:15;14.18;;;7.22;;
10659;SDS011;5378;53.206;13.316;2022-12-13T05:22:04;19.70;;;8.70;;
10659;SDS011;5378;53.206;13.316;2022-12-13T05:25:04;26.60;;;10.45;;
10659;SDS011;5378;53.206;13.316;2022-12-13T05:27:52;20.50;;;8.90;;
10659;SDS011;5378;53.206;13.316;2022-12-13T05:30:39;21.70;;;8.10;;
10659;SDS011;5378;53.206;13.316;2022-12-13T05:33:27;23.53;;;7.80;;
10659;SDS011;5378;53.206;13.316;2022-12-13T05:36:14;23.23;;;6.27;;
10659;SDS011;5378;53.206;13.316;2022-12-13T05:39:02;16.37;;;7.83;;
10659;SDS011;5378;53.206;13.316;2022-12-13T05:41:49;19.10;;;7.30;;
10659;SDS011;5378;53.206;13.316;2022-12-13T05:44:37;23.50;;;7.70;;
10659;SDS011;5378;53.206;13.316;2022-12-13T05:47:24;17.80;;;6.03;;
10659;SDS011;5378;53.206;13.316;2022-12-13T05:50:11;16.07;;;7.07;;
10659;SDS011;5378;53.206;13.316;2022-12-13T05:52:59;23.17;;;8.47;;
10659;SDS011;5378;53.206;13.316;2022-12-13T05:55:48;20.42;;;7.40;;
10659;SDS011;5378;53.206;13.316;2022-12-13T05:58:35;18.70;;;7.60;;
10659;SDS011;5378;53.206;13.316;2022-12-13T06:01:23;17.63;;;6.93;;
10659;SDS011;5378;53.206;13.316;2022-12-13T06:04:10;12.60;;;5.63;;
10659;SDS011;5378;53.206;13.316;2022-12-13T06:06:58;16.17;;;7.00;;
10659;SDS011;5378;53.206;13.316;2022-12-13T06:09:45;15.13;;;6.65;;
10659;SDS011;5378;53.206;13.316;2022-12-13T06:12:34;20.48;;;7.43;;
10659;SDS011;5378;53.206;13.316;2022-12-13T06:15:22;17.70;;;7.67;;
10659;SDS011;5378;53.206;13.316;2022-12-13T06:18:09;17.23;;;6.97;;
10659;SDS011;5378;53.206;13.316;2022-12-13T06:20:56;20.93;;;6.77;;
10659;SDS011;5378;53.206;13.316;2022-12-13T06:23:44;20.70;;;7.60;;
10659;SDS011;5378;53.206;13.316;2022-12-13T06:26:32;20.83;;;7.17;;
10659;SDS011;5378;53.206;13.316;2022-12-13T06:29:21;22.50;;;7.00;;
10659;SDS011;5378;53.206;13.316;2022-12-13T06:32:10;21.33;;;8.27;;
10659;SDS011;5378;53.206;13.316;2022-12-13T06:34:57;19.57;;;8.00;;
10659;SDS011;5378;53.206;13.316;2022-12-13T06:37:44;29.63;;;8.07;;
10659;SDS011;5378;53.206;13.316;2022-12-13T06:40:31;20.10;;;6.90;;
10659;SDS011;5378;53.206;13.316;2022-12-13T06:43:19;23.63;;;7.70;;
10659;SDS011;5378;53.206;13.316;2022-12-13T06:46:08;17.80;;;6.87;;
10659;SDS011;5378;53.206;13.316;2022-12-13T06:48:55;17.13;;;6.60;;
10659;SDS011;5378;53.206;13.316;2022-12-13T06:51:42;16.90;;;8.07;;
10659;SDS011;5378;53.206;13.316;2022-12-13T06:54:29;14.40;;;6.83;;
10659;SDS011;5378;53.206;13.316;2022-12-13T06:57:17;13.70;;;6.33;;
10659;SDS011;5378;53.206;13.316;2022-12-13T07:00:05;21.50;;;6.60;;
10659;SDS011;5378;53.206;13.316;2022-12-13T07:02:54;30.00;;;9.50;;
10659;SDS011;5378;53.206;13.316;2022-12-13T07:05:41;25.43;;;7.80;;
10659;SDS011;5378;53.206;13.316;2022-12-13T07:08:29;23.57;;;7.77;;
10659;SDS011;5378;53.206;13.316;2022-12-13T07:11:17;16.33;;;7.00;;
10659;SDS011;5378;53.206;13.316;2022-12-13T07:14:06;26.03;;;9.10;;
10659;SDS011;5378;53.206;13.316;2022-12-13T07:16:54;26.30;;;7.50;;
10659;SDS011;5378;53.206;13.316;2022-12-13T07:19:48;16.23;;;5.97;;
10659;SDS011;5378;53.206;13.316;2022-12-13T07:22:36;18.47;;;7.57;;
10659;SDS011;5378;53.206;13.316;2022-12-13T07:25:27;24.03;;;7.80;;
10659;SDS011;5378;53.206;13.316;2022-12-13T07:28:15;15.73;;;6.30;;
10659;SDS011;5378;53.206;13.316;2022-12-13T07:31:03;22.13;;;7.90;;
10659;SDS011;5378;53.206;13.316;2022-12-13T07:33:51;24.17;;;8.53;;
10659;SDS011;5378;53.206;13.316;2022-12-13T07:36:40;17.50;;;7.90;;
10659;SDS011;5378;53.206;13.316;2022-12-13T07:39:27;21.53;;;8.13;;
10659;SDS011;5378;53.206;13.316;2022-12-13T07:42:16;22.87;;;7.97;;
10659;SDS011;5378;53.206;13.316;2022-12-13T07:45:03;25.73;;;8.90;;
10659;SDS011;5378;53.206;13.316;2022-12-13T07:47:51;25.87;;;9.13;;
10659;SDS011;5378;53.206;13.316;2022-12-13T07:50:39;20.67;;;7.87;;
10659;SDS011;5378;53.206;13.316;2022-12-13T07:53:27;22.77;;;7.97;;
10659;SDS011;5378;53.206;13.316;2022-12-13T07:56:14;31.43;;;8.90;;
10659;SDS011;5378;53.206;13.316;2022-12-13T07:59:02;19.40;;;7.50;;
10659;SDS011;5378;53.206;13.316;2022-12-13T08:01:49;32.63;;;9.83;;
10659;SDS011;5378;53.206;13.316;2022-12-13T08:04:36;36.97;;;13.90;;
10659;SDS011;5378;53.206;13.316;2022-12-13T08:07:23;32.30;;;12.70;;
10659;SDS011;5378;53.206;13.316;2022-12-13T08:10:12;34.03;;;13.50;;
10659;SDS011;5378;53.206;13.316;2022-12-13T08:13:00;27.50;;;9.87;;
10659;SDS011;5378;53.206;13.316;2022-12-13T08:15:47;27.50;;;9.67;;
10659;SDS011;5378;53.206;13.316;2022-12-13T08:18:34;30.23;;;11.30;;
10659;SDS011;5378;53.206;13.316;2022-12-13T08:21:23;24.50;;;9.07;;
10659;SDS011;5378;53.206;13.316;2022-12-13T08:24:30;18.93;;;8.07;;
10659;SDS011;5378;53.206;13.316;2022-12-13T08:27:18;27.00;;;9.57;;
10659;SDS011;5378;53.206;13.316;2022-12-13T08:30:05;26.30;;;10.57;;
10659;SDS011;5378;53.206;13.316;2022-12-13T08:32:53;36.83;;;10.80;;
10659;SDS011;5378;53.206;13.316;2022-12-13T08:35:40;19.63;;;9.10;;
10659;SDS011;5378;53.206;13.316;2022-12-13T08:38:28;22.43;;;9.50;;
10659;SDS011;5378;53.206;13.316;2022-12-13T08:41:15;21.43;;;9.00;;
10659;SDS011;5378;53.206;13.316;2022-12-13T08:44:03;22.63;;;9.17;;
10659;SDS011;5378;53.206;13.316;2022-12-13T08:46:51;20.33;;;8.27;;
10659;SDS011;5378;53.206;13.316;2022-12-13T08:49:39;24.27;;;9.73;;
10659;SDS011;5378;53.206;13.316;2022-12-13T08:52:26;25.93;;;10.67;;
10659;SDS011;5378;53.206;13.316;2022-12-13T08:55:14;29.87;;;9.47;;
10659;SDS011;5378;53.206;13.316;2022-12-13T08:58:03;30.20;;;10.40;;
10659;SDS011;5378;53.206;13.316;2022-12-13T09:00:56;30.00;;;8.93;;
10659;SDS011;5378;53.206;13.316;2022-12-13T09:03:43;29.00;;;10.37;;
10659;SDS011;5378;53.206;13.316;2022-12-13T09:06:30;28.53;;;8.83;;
10659;SDS011;5378;53.206;13.316;2022-12-13T09:09:17;21.40;;;9.10;;
10659;SDS011;5378;53.206;13.316;2022-12-13T09:12:05;35.17;;;10.77;;
10659;SDS011;5378;53.206;13.316;2022-12-13T09:14:53;29.20;;;9.53;;
10659;SDS011;5378;53.206;13.316;2022-12-13T09:17:41;38.17;;;8.80;;
10659;SDS011;5378;53.206;13.316;2022-12-13T09:20:28;25.10;;;10.13;;
10659;SDS011;5378;53.206;13.316;2022-12-13T09:23:16;21.47;;;8.30;;
10659;SDS011;5378;53.206;13.316;2022-12-13T09:26:03;19.73;;;8.90;;
10659;SDS011;5378;53.206;13.316;2022-12-13T09:28:50;30.60;;;11.53;;
10659;SDS011;5378;53.206;13.316;2022-12-13T09:31:37;22.83;;;9.67;;
10659;SDS011;5378;53.206;13.316;2022-12-13T09:34:26;19.73;;;8.00;;
10659;SDS011;5378;53.206;13.316;2022-12-13T09:37:14;24.77;;;10.17;;
10659;SDS011;5378;53.206;13.316;2022-12-13T09:40:01;25.60;;;10.20;;
10659;SDS011;5378;53.206;13.316;2022-12-13T09:42:50;30.27;;;11.13;;
10659;SDS011;5378;53.206;13.316;2022-12-13T09:45:49;29.40;;;10.80;;
10659;SDS011;5378;53.206;13.316;2022-12-13T09:48:37;19.27;;;8.27;;
10659;SDS011;5378;53.206;13.316;2022-12-13T09:51:25;22.93;;;9.87;;
10659;SDS011;5378;53.206;13.316;2022-12-13T09:54:15;21.07;;;10.60;;
10659;SDS011;5378;53.206;13.316;2022-12-13T09:57:08;27.07;;;9.90;;
10659;SDS011;5378;53.206;13.316;2022-12-13T10:00:03;23.53;;;9.83;;
10659;SDS011;5378;53.206;13.316;2022-12-13T10:02:56;28.70;;;11.27;;
10659;SDS011;5378;53.206;13.316;2022-12-13T10:05:44;26.60;;;10.23;;
10659;SDS011;5378;53.206;13.316;2022-12-13T10:08:39;26.30;;;8.90;;
10659;SDS011;5378;53.206;13.316;2022-12-13T10:11:29;29.37;;;9.83;;
10659;SDS011;5378;53.206;13.316;2022-12-13T10:14:17;30.80;;;9.60;;
10659;SDS011;5378;53.206;13.316;2022-12-13T10:17:11;25.47;;;10.27;;
10659;SDS011;5378;53.206;13.316;2022-12-13T10:20:01;20.13;;;8.23;;
10659;SDS011;5378;53.206;13.316;2022-12-13T10:22:49;16.53;;;7.03;;
10659;SDS011;5378;53.206;13.316;2022-12-13T10:25:54;22.00;;;7.43;;
10659;SDS011;5378;53.206;13.316;2022-12-13T10:28:42;26.10;;;8.73;;
10659;SDS011;5378;53.206;13.316;2022-12-13T10:31:30;33.07;;;9.23;;
10659;SDS011;5378;53.206;13.316;2022-12-13T10:34:26;34.50;;;11.27;;
10659;SDS011;5378;53.206;13.316;2022-12-13T10:37:19;28.27;;;10.70;;
10659;SDS011;5378;53.206;13.316;2022-12-13T10:40:23;38.30;;;10.60;;
10659;SDS011;5378;53.206;13.316;2022-12-13T10:43:19;25.03;;;9.93;;
10659;SDS011;5378;53.206;13.316;2022-12-13T10:46:13;24.63;;;10.77;;
10659;SDS011;5378;53.206;13.316;2022-12-13T10:49:11;27.53;;;9.70;;
10659;SDS011;5378;53.206;13.316;2022-12-13T10:52:02;22.60;;;10.20;;
10659;SDS011;5378;53.206;13.316;2022-12-13T10:54:50;23.57;;;9.37;;
10659;SDS011;5378;53.206;13.316;2022-12-13T10:57:38;26.00;;;9.30;;
10659;SDS011;5378;53.206;13.316;2022-12-13T11:00:31;29.13;;;10.03;;
10659;SDS011;5378;53.206;13.316;2022-12-13T11:03:28;31.80;;;9.07;;
10659;SDS011;5378;53.206;13.316;2022-12-13T11:06:16;27.07;;;9.50;;
10659;SDS011;5378;53.206;13.316;2022-12-13T11:09:11;26.23;;;9.40;;
10659;SDS011;5378;53.206;13.316;2022-12-13T11:12:00;25.53;;;8.80;;
10659;SDS011;5378;53.206;13.316;2022-12-13T11:14:49;26.43;;;9.90;;
10659;SDS011;5378;53.206;13.316;2022-12-13T11:17:45;38.97;;;13.50;;
10659;SDS011;5378;53.206;13.316;2022-12-13T11:20:35;25.70;;;10.00;;
10659;SDS011;5378;53.206;13.316;2022-12-13T11:23:25;23.47;;;9.17;;
10659;SDS011;5378;53.206;13.316;2022-12-13T11:26:15;27.37;;;9.13;;
10659;SDS011;5378;53.206;13.316;2022-12-13T11:29:10;22.90;;;9.03;;
10659;SDS011;5378;53.206;13.316;2022-12-13T11:32:17;24.90;;;8.93;;
10659;SDS011;5378;53.206;13.316;2022-12-13T11:35:19;25.40;;;9.47;;
10659;SDS011;5378;53.206;13.316;2022-12-13T11:38:14;19.47;;;8.20;;
10659;SDS011;5378;53.206;13.316;2022-12-13T11:41:13;29.27;;;9.33;;
10659;SDS011;5378;53.206;13.316;2022-12-13T11:44:08;29.50;;;10.30;;
10659;SDS011;5378;53.206;13.316;2022-12-13T11:47:00;30.03;;;11.10;;
10659;SDS011;5378;53.206;13.316;2022-12-13T11:49:49;21.67;;;9.50;;
10659;SDS011;5378;53.206;13.316;2022-12-13T11:52:40;27.50;;;10.83;;
10659;SDS011;5378;53.206;13.316;2022-12-13T11:55:33;33.93;;;10.23;;
10659;SDS011;5378;53.206;13.316;2022-12-13T11:58:26;22.67;;;9.27;;
10659;SDS011;5378;53.206;13.316;2022-12-13T12:01:38;28.03;;;9.63;;
10659;SDS011;5378;53.206;13.316;2022-12-13T12:04:30;27.13;;;8.23;;
10659;SDS011;5378;53.206;13.316;2022-12-13T12:07:23;23.10;;;10.03;;
10659;SDS011;5378;53.206;13.316;2022-12-13T12:10:21;38.40;;;10.73;;
10659;SDS011;5378;53.206;13.316;2022-12-13T12:13:15;26.33;;;10.07;;
10659;SDS011;5378;53.206;13.316;2022-12-13T12:16:07;24.80;;;9.80;;
10659;SDS011;5378;53.206;13.316;2022-12-13T12:18:58;25.00;;;9.63;;
10659;SDS011;5378;53.206;13.316;2022-12-13T12:21:50;25.10;;;10.33;;
10659;SDS011;5378;53.206;13.316;2022-12-13T12:25:03;25.40;;;9.70;;
10659;SDS011;5378;53.206;13.316;2022-12-13T12:28:08;23.80;;;9.70;;
10659;SDS011;5378;53.206;13.316;2022-12-13T12:31:05;26.63;;;9.20;;
10659;SDS011;5378;53.206;13.316;2022-12-13T12:34:01;25.73;;;8.07;;
10659;SDS011;5378;53.206;13.316;2022-12-13T12:36:59;22.20;;;7.27;;
10659;SDS011;5378;53.206;13.316;2022-12-13T12:39:57;19.13;;;8.50;;
10659;SDS011;5378;53.206;13.316;2022-12-13T12:42:55;23.63;;;9.40;;
10659;SDS011;5378;53.206;13.316;2022-12-13T12:46:04;19.90;;;8.30;;
10659;SDS011;5378;53.206;13.316;2022-12-13T12:49:25;27.73;;;10.40;;
10659;SDS011;5378;53.206;13.316;2022-12-13T12:52:32;21.30;;;7.60;;
10659;SDS011;5378;53.206;13.316;2022-12-13T12:55:27;26.50;;;10.27;;
10659;SDS011;5378;53.206;13.316;2022-12-13T13:01:49;26.13;;;9.83;;
10659;SDS011;5378;53.206;13.316;2022-12-13T13:04:41;19.67;;;8.03;;
10659;SDS011;5378;53.206;13.316;2022-12-13T13:07:33;23.77;;;7.97;;
10659;SDS011;5378;53.206;13.316;2022-12-13T13:10:23;18.27;;;6.80;;
10659;SDS011;5378;53.206;13.316;2022-12-13T13:16:29;21.27;;;6.57;;
10659;SDS011;5378;53.206;13.316;2022-12-13T13:22:30;31.30;;;8.77;;
10659;SDS011;5378;53.206;13.316;2022-12-13T13:25:23;25.03;;;7.90;;
10659;SDS011;5378;53.206;13.316;2022-12-13T13:28:14;20.63;;;7.20;;
10659;SDS011;5378;53.206;13.316;2022-12-13T13:31:03;17.03;;;7.30;;
10659;SDS011;5378;53.206;13.316;2022-12-13T13:33:52;28.97;;;7.80;;
10659;SDS011;5378;53.206;13.316;2022-12-13T13:36:46;22.33;;;8.73;;
10659;SDS011;5378;53.206;13.316;2022-12-13T13:39:53;26.03;;;8.43;;
10659;SDS011;5378;53.206;13.316;2022-12-13T13:45:52;23.33;;;7.63;;
10659;SDS011;5378;53.206;13.316;2022-12-13T13:48:53;16.77;;;6.43;;
10659;SDS011;5378;53.206;13.316;2022-12-13T13:55:16;18.23;;;6.17;;
10659;SDS011;5378;53.206;13.316;2022-12-13T13:58:30;16.07;;;6.80;;
10659;SDS011;5378;53.206;13.316;2022-12-13T14:08:19;16.77;;;6.63;;
10659;SDS011;5378;53.206;13.316;2022-12-13T14:11:23;20.93;;;7.10;;
10659;SDS011;5378;53.206;13.316;2022-12-13T14:14:43;17.63;;;6.67;;
10659;SDS011;5378;53.206;13.316;2022-12-13T14:17:56;20.57;;;7.50;;
10659;SDS011;5378;53.206;13.316;2022-12-13T14:21:25;14.23;;;7.53;;
10659;SDS011;5378;53.206;13.316;2022-12-13T14:24:21;18.03;;;7.83;;
10659;SDS011;5378;53.206;13.316;2022-12-13T14:27:15;19.73;;;7.93;;
10659;SDS011;5378;53.206;13.316;2022-12-13T14:30:11;16.83;;;6.23;;
10659;SDS011;5378;53.206;13.316;2022-12-13T14:33:00;24.23;;;8.83;;
10659;SDS011;5378;53.206;13.316;2022-12-13T14:35:51;31.63;;;10.27;;
10659;SDS011;5378;53.206;13.316;2022-12-13T14:38:39;25.87;;;8.40;;
10659;SDS011;5378;53.206;13.316;2022-12-13T14:41:28;23.77;;;7.63;;
10659;SDS011;5378;53.206;13.316;2022-12-13T14:44:15;33.30;;;10.43;;
10659;SDS011;5378;53.206;13.316;2022-12-13T14:47:07;26.33;;;7.80;;
10659;SDS011;5378;53.206;13.316;2022-12-13T14:49:57;18.40;;;7.90;;
10659;SDS011;5378;53.206;13.316;2022-12-13T14:52:44;22.30;;;8.15;;
10659;SDS011;5378;53.206;13.316;2022-12-13T14:55:35;26.73;;;9.37;;
10659;SDS011;5378;53.206;13.316;2022-12-13T14:58:23;22.73;;;7.83;;
10659;SDS011;5378;53.206;13.316;2022-12-13T15:01:22;26.57;;;9.60;;
10659;SDS011;5378;53.206;13.316;2022-12-13T15:04:15;25.97;;;10.20;;
10659;SDS011;5378;53.206;13.316;2022-12-13T15:07:05;30.07;;;9.37;;
10659;SDS011;5378;53.206;13.316;2022-12-13T15:09:54;26.93;;;9.50;;
10659;SDS011;5378;53.206;13.316;2022-12-13T15:12:43;25.47;;;11.00;;
10659;SDS011;5378;53.206;13.316;2022-12-13T15:15:34;28.73;;;9.47;;
10659;SDS011;5378;53.206;13.316;2022-12-13T15:18:22;24.90;;;9.20;;
10659;SDS011;5378;53.206;13.316;2022-12-13T15:21:17;27.40;;;10.47;;
10659;SDS011;5378;53.206;13.316;2022-12-13T15:24:15;32.77;;;11.57;;
10659;SDS011;5378;53.206;13.316;2022-12-13T15:27:08;23.02;;;9.82;;
10659;SDS011;5378;53.206;13.316;2022-12-13T15:29:56;34.33;;;11.53;;
10659;SDS011;5378;53.206;13.316;2022-12-13T15:36:00;22.47;;;9.27;;
10659;SDS011;5378;53.206;13.316;2022-12-13T15:38:57;34.10;;;10.67;;
10659;SDS011;5378;53.206;13.316;2022-12-13T15:41:46;34.70;;;10.23;;
10659;SDS011;5378;53.206;13.316;2022-12-13T15:44:37;35.10;;;11.17;;
10659;SDS011;5378;53.206;13.316;2022-12-13T15:47:30;31.97;;;10.97;;
10659;SDS011;5378;53.206;13.316;2022-12-13T15:50:33;26.37;;;9.70;;
10659;SDS011;5378;53.206;13.316;2022-12-13T15:53:23;28.60;;;9.83;;
10659;SDS011;5378;53.206;13.316;2022-12-13T15:56:31;41.00;;;12.33;;
10659;SDS011;5378;53.206;13.316;2022-12-13T15:59:23;51.17;;;10.63;;
10659;SDS011;5378;53.206;13.316;2022-12-13T16:02:12;30.37;;;10.03;;
10659;SDS011;5378;53.206;13.316;2022-12-13T16:05:05;23.37;;;10.97;;
10659;SDS011;5378;53.206;13.316;2022-12-13T16:07:55;26.17;;;11.10;;
10659;SDS011;5378;53.206;13.316;2022-12-13T16:10:45;24.60;;;9.65;;
10659;SDS011;5378;53.206;13.316;2022-12-13T16:13:33;20.73;;;8.83;;
10659;SDS011;5378;53.206;13.316;2022-12-13T16:16:22;38.50;;;11.77;;
10659;SDS011;5378;53.206;13.316;2022-12-13T16:19:14;35.83;;;13.63;;
10659;SDS011;5378;53.206;13.316;2022-12-13T16:22:04;35.60;;;11.33;;
10659;SDS011;5378;53.206;13.316;2022-12-13T16:24:53;24.47;;;10.50;;
10659;SDS011;5378;53.206;13.316;2022-12-13T16:27:40;29.30;;;11.40;;
10659;SDS011;5378;53.206;13.316;2022-12-13T16:31:01;33.77;;;9.80;;
10659;SDS011;5378;53.206;13.316;2022-12-13T16:33:42;31.27;;;11.70;;
10659;SDS011;5378;53.206;13.316;2022-12-13T16:36:30;32.93;;;10.10;;
10659;SDS011;5378;53.206;13.316;2022-12-13T16:39:17;26.87;;;12.10;;
10659;SDS011;5378;53.206;13.316;2022-12-13T16:42:05;31.60;;;9.93;;
10659;SDS011;5378;53.206;13.316;2022-12-13T16:44:52;26.23;;;10.13;;
10659;SDS011;5378;53.206;13.316;2022-12-13T16:47:50;27.10;;;10.10;;
10659;SDS011;5378;53.206;13.316;2022-12-13T16:50:39;33.43;;;10.03;;
10659;SDS011;5378;53.206;13.316;2022-12-13T16:53:27;33.17;;;9.70;;
10659;SDS011;5378;53.206;13.316;2022-12-13T16:56:14;27.03;;;10.20;;
10659;SDS011;5378;53.206;13.316;2022-12-13T16:59:07;35.43;;;12.30;;
10659;SDS011;5378;53.206;13.316;2022-12-13T17:01:57;28.30;;;10.67;;
10659;SDS011;5378;53.206;13.316;2022-12-13T17:04:44;36.23;;;11.40;;
10659;SDS011;5378;53.206;13.316;2022-12-13T17:07:33;29.20;;;10.00;;
10659;SDS011;5378;53.206;13.316;2022-12-13T17:10:20;44.40;;;11.02;;
10659;SDS011;5378;53.206;13.316;2022-12-13T17:13:08;30.73;;;11.45;;
10659;SDS011;5378;53.206;13.316;2022-12-13T17:15:55;29.90;;;10.90;;
10659;SDS011;5378;53.206;13.316;2022-12-13T17:18:42;28.90;;;10.27;;
10659;SDS011;5378;53.206;13.316;2022-12-13T17:21:29;40.45;;;11.32;;
10659;SDS011;5378;53.206;13.316;2022-12-13T17:24:18;36.20;;;14.48;;
10659;SDS011;5378;53.206;13.316;2022-12-13T17:27:05;30.95;;;12.40;;